This is the latest recevied weather packets stored in our database for station/object EA1RCG-11. If no packets are shown the sender has not sent any weather packets the latest 10 day(s).
| Time | Temp. | Humidity | Pressure | Rain* | Wind** | Luminosity | Snow |
|---|---|---|---|---|---|---|---|
| 1778088886 | 17.22° C | 61% | 977.3 hPa | - | - | - | - |
| 1778087086 | 17.78° C | 60% | 977.1 hPa | - | - | - | - |
| 1778085286 | 17.78° C | 62% | 977 hPa | - | - | - | - |
| 1778083485 | 20.56° C | 57% | 976.9 hPa | - | - | - | - |
| 1778081685 | 20.56° C | 57% | 976.9 hPa | - | - | - | - |
| 1778079885 | 19.44° C | 58% | 977 hPa | - | - | - | - |
| 1778078085 | 19.44° C | 60% | 977.2 hPa | - | - | - | - |
| 1778076285 | 18.33° C | 61% | 977.5 hPa | - | - | - | - |
| 1778074485 | 19.44° C | 60% | 977.7 hPa | - | - | - | - |
| 1778072685 | 21.67° C | 56% | 977.7 hPa | - | - | - | - |
| 1778070885 | 23.33° C | 54% | 978.1 hPa | - | - | - | - |
| 1778069085 | 23.89° C | 54% | 978.5 hPa | - | - | - | - |
| 1778067285 | 22.78° C | 55% | 978.7 hPa | - | - | - | - |
| 1778065484 | 24.44° C | 53% | 978.8 hPa | - | - | - | - |
| 1778063684 | 24.44° C | 53% | 978.9 hPa | - | - | - | - |
| 1778061884 | 22.78° C | 55% | 979.1 hPa | - | - | - | - |
| 1778060084 | 23.89° C | 54% | 978.9 hPa | - | - | - | - |
| 1778058284 | 34.44° C | 41% | 978.6 hPa | - | - | - | - |
| 1778056484 | 27.78° C | 47% | 978.9 hPa | - | - | - | - |
| 1778054684 | 26.67° C | 47% | 979.3 hPa | - | - | - | - |
| 1778052884 | 20° C | 56% | 979 hPa | - | - | - | - |
| 1778051084 | 30° C | 42% | 979.4 hPa | - | - | - | - |
| 1778049284 | 13.33° C | 65% | 979.2 hPa | - | - | - | - |
| 1778047483 | 11.67° C | 67% | 979.3 hPa | - | - | - | - |
| 1778045683 | 11.67° C | 68% | 979.1 hPa | - | - | - | - |
* Rain since midnight (hover to see other rain measurements)
** Current wind speed in m/s (hover to see current wind gust speed)